createdAt,value
2018-05-31T00:01:26.970Z,26.70
2018-05-31T00:05:38.615Z,26.98
2018-05-31T00:07:39.588Z,25.33
2018-05-31T00:09:40.562Z,32.63
2018-05-31T00:11:41.545Z,26.83
2018-05-31T00:13:43.659Z,43.83
2018-05-31T00:15:44.762Z,29.13
2018-05-31T00:17:51.897Z,33.00
2018-05-31T00:19:59.480Z,31.53
2018-05-31T00:22:05.784Z,31.07
2018-05-31T00:24:08.985Z,27.97
2018-05-31T00:26:09.978Z,30.50
2018-05-31T00:28:10.986Z,26.50
2018-05-31T00:30:11.940Z,40.83
2018-05-31T00:32:16.463Z,29.43
2018-05-31T00:34:17.441Z,27.40
2018-05-31T00:36:18.409Z,31.40
2018-05-31T00:38:19.373Z,28.80
2018-05-31T00:40:21.667Z,23.83
2018-05-31T00:42:23.899Z,36.30
2018-05-31T00:44:24.944Z,29.70
2018-05-31T00:46:28.362Z,20.30
2018-05-31T00:48:29.990Z,28.80
2018-05-31T00:50:31.013Z,26.60
2018-05-31T00:52:32.006Z,31.27
2018-05-31T00:54:36.497Z,36.17
2018-05-31T00:56:37.543Z,27.20
2018-05-31T00:58:38.509Z,30.90
2018-05-31T01:00:39.486Z,26.60
2018-05-31T01:02:41.180Z,28.30
2018-05-31T01:04:43.960Z,38.07
2018-05-31T01:06:45.744Z,43.73
2018-05-31T01:08:46.786Z,36.63
2018-05-31T01:10:47.754Z,37.97
2018-05-31T01:12:48.713Z,39.23
2018-05-31T01:14:49.685Z,36.80
2018-05-31T01:16:50.641Z,34.70
2018-05-31T01:18:52.349Z,29.67
2018-05-31T01:20:53.290Z,41.72
2018-05-31T01:22:56.908Z,29.53
2018-05-31T01:24:59.996Z,33.00
2018-05-31T01:27:01.018Z,27.30
2018-05-31T01:29:01.991Z,26.87
2018-05-31T01:31:03.547Z,29.67
2018-05-31T01:33:04.545Z,29.13
2018-05-31T01:35:05.531Z,30.03
2018-05-31T01:37:06.482Z,25.90
2018-05-31T01:39:07.448Z,39.30
2018-05-31T01:41:08.424Z,33.13
2018-05-31T01:43:09.407Z,39.57
2018-05-31T01:45:10.387Z,31.00
2018-05-31T01:47:11.372Z,24.43
2018-05-31T01:49:15.098Z,32.23
2018-05-31T01:51:16.397Z,26.77
2018-05-31T01:53:18.141Z,28.60
2018-05-31T01:55:19.121Z,26.67
2018-05-31T01:57:20.065Z,26.10
2018-05-31T01:59:21.033Z,26.47
2018-05-31T02:01:21.995Z,29.40
2018-05-31T02:03:23.713Z,23.07
2018-05-31T02:05:25.970Z,34.63
2018-05-31T02:07:27.014Z,28.83
2018-05-31T02:09:27.961Z,24.03
2018-05-31T02:11:28.964Z,34.33
2018-05-31T02:13:31.544Z,30.30
2018-05-31T02:15:32.512Z,29.17
2018-05-31T02:17:34.553Z,27.60
2018-05-31T02:19:36.573Z,31.07
2018-05-31T02:21:37.543Z,31.63
2018-05-31T02:23:38.963Z,35.63
2018-05-31T02:25:39.974Z,27.60
2018-05-31T02:27:40.961Z,33.43
2018-05-31T02:29:41.945Z,30.00
2018-05-31T02:31:42.901Z,29.30
2018-05-31T02:33:43.906Z,28.70
2018-05-31T02:35:44.838Z,30.53
2018-05-31T02:37:46.557Z,23.40
2018-05-31T02:39:47.515Z,30.13
2018-05-31T02:41:48.525Z,29.20
2018-05-31T02:43:49.503Z,36.83
2018-05-31T02:45:52.151Z,29.80
2018-05-31T02:47:53.132Z,31.40
2018-05-31T02:49:54.065Z,29.40
2018-05-31T02:51:55.028Z,31.80
2018-05-31T02:53:55.960Z,26.10
2018-05-31T02:55:59.355Z,32.43
2018-05-31T02:58:01.114Z,31.40
2018-05-31T03:00:03.414Z,25.43
2018-05-31T03:02:04.418Z,30.27
2018-05-31T03:04:05.360Z,29.33
2018-05-31T03:06:07.682Z,31.23
2018-05-31T03:08:08.772Z,30.53
2018-05-31T03:10:10.477Z,33.57
2018-05-31T03:12:11.421Z,25.60
2018-05-31T03:14:12.707Z,30.27
2018-05-31T03:16:13.696Z,33.40
2018-05-31T03:18:15.049Z,26.90
2018-05-31T03:20:16.815Z,25.60
2018-05-31T03:22:17.960Z,37.50
2018-05-31T03:24:19.637Z,30.03
2018-05-31T03:26:20.653Z,33.70
2018-05-31T03:28:22.348Z,28.43
2018-05-31T03:30:23.660Z,29.73
2018-05-31T03:32:25.074Z,24.80
2018-05-31T03:34:26.569Z,38.60
2018-05-31T03:36:27.581Z,28.77
2018-05-31T03:38:28.938Z,27.00
2018-05-31T03:40:29.917Z,32.60
2018-05-31T03:42:30.873Z,27.33
2018-05-31T03:44:31.846Z,25.47
2018-05-31T03:46:32.845Z,35.27
2018-05-31T03:48:33.805Z,27.17
2018-05-31T03:50:34.765Z,31.53
2018-05-31T03:52:35.790Z,20.40
2018-05-31T03:54:36.985Z,26.50
2018-05-31T03:56:38.165Z,30.30
2018-05-31T03:58:39.309Z,22.87
2018-05-31T04:00:40.310Z,21.90
2018-05-31T04:02:42.026Z,27.97
2018-05-31T04:04:42.965Z,23.67
2018-05-31T04:06:43.896Z,27.03
2018-05-31T04:08:44.853Z,30.83
2018-05-31T04:10:47.337Z,29.33
2018-05-31T04:12:48.306Z,24.83
2018-05-31T04:14:49.249Z,28.60
2018-05-31T04:16:50.177Z,31.00
2018-05-31T04:18:51.134Z,28.10
2018-05-31T04:20:52.066Z,35.57
2018-05-31T04:22:53.063Z,30.80
2018-05-31T04:24:58.428Z,28.53
2018-05-31T04:26:59.507Z,30.13
2018-05-31T04:29:00.469Z,30.67
2018-05-31T04:31:01.438Z,28.47
2018-05-31T04:33:03.653Z,30.37
2018-05-31T04:35:04.653Z,32.13
2018-05-31T04:37:05.631Z,33.90
2018-05-31T04:39:07.328Z,37.67
2018-05-31T04:41:08.304Z,37.97
2018-05-31T04:43:09.572Z,36.83
2018-05-31T04:45:10.667Z,46.20
2018-05-31T04:47:11.654Z,35.70
2018-05-31T04:49:12.624Z,36.77
2018-05-31T04:51:13.961Z,40.53
2018-05-31T04:53:14.964Z,39.80
2018-05-31T04:55:15.929Z,37.17
2018-05-31T04:57:16.896Z,42.37
2018-05-31T04:59:17.848Z,48.63
2018-05-31T05:01:21.324Z,44.13
2018-05-31T05:03:25.233Z,46.10
2018-05-31T05:05:26.937Z,44.23
2018-05-31T05:07:30.557Z,47.63
2018-05-31T05:09:32.465Z,46.17
2018-05-31T05:11:33.409Z,39.40
2018-05-31T05:13:34.916Z,45.17
2018-05-31T05:15:35.884Z,42.90
2018-05-31T05:17:36.865Z,44.33
2018-05-31T05:19:37.833Z,44.37
2018-05-31T05:21:39.031Z,50.10
2018-05-31T05:23:40.729Z,61.83
2018-05-31T05:25:41.694Z,42.83
2018-05-31T05:27:42.829Z,46.47
2018-05-31T05:29:43.764Z,48.30
2018-05-31T05:31:44.733Z,41.50
2018-05-31T05:33:45.740Z,44.43
2018-05-31T05:35:46.711Z,48.23
2018-05-31T05:37:47.653Z,44.10
2018-05-31T05:39:48.608Z,44.97
2018-05-31T05:41:49.568Z,46.00
2018-05-31T05:43:50.517Z,48.33
2018-05-31T05:45:51.456Z,38.43
2018-05-31T05:47:52.442Z,35.90
2018-05-31T05:49:53.385Z,39.40
2018-05-31T05:51:54.338Z,44.03
2018-05-31T05:53:56.068Z,44.03
2018-05-31T05:55:57.026Z,45.10
2018-05-31T05:57:57.993Z,56.53
2018-05-31T05:59:59.685Z,43.57
2018-05-31T06:02:00.668Z,44.30
2018-05-31T06:04:01.654Z,41.67
2018-05-31T06:06:03.347Z,39.53
2018-05-31T06:08:04.337Z,43.50
2018-05-31T06:10:05.387Z,37.03
2018-05-31T06:12:06.266Z,31.87
2018-05-31T06:14:08.001Z,39.20
2018-05-31T06:16:08.961Z,33.80
2018-05-31T06:18:10.678Z,29.90
2018-05-31T06:20:11.652Z,31.10
2018-05-31T06:22:15.830Z,41.17
2018-05-31T06:24:16.794Z,33.00
2018-05-31T06:26:17.750Z,32.30
2018-05-31T06:28:18.725Z,37.50
2018-05-31T06:30:19.658Z,32.83
2018-05-31T06:32:20.608Z,38.13
2018-05-31T06:34:21.577Z,29.73
2018-05-31T06:36:23.425Z,33.10
2018-05-31T06:38:24.396Z,33.10
2018-05-31T06:40:26.097Z,32.53
2018-05-31T06:42:27.110Z,35.20
2018-05-31T06:44:28.110Z,34.10
2018-05-31T06:46:29.135Z,28.60
2018-05-31T06:48:30.118Z,36.60
2018-05-31T06:50:31.064Z,31.20
2018-05-31T06:52:32.045Z,30.33
2018-05-31T06:54:33.737Z,28.47
2018-05-31T06:56:34.677Z,29.00
2018-05-31T06:58:35.631Z,27.23
2018-05-31T07:00:36.645Z,26.00
2018-05-31T07:02:37.641Z,32.80
2018-05-31T07:04:38.623Z,27.23
2018-05-31T07:06:40.310Z,30.10
2018-05-31T07:08:41.332Z,34.50
2018-05-31T07:10:42.377Z,26.33
2018-05-31T07:12:44.073Z,27.87
2018-05-31T07:14:45.025Z,25.73
2018-05-31T07:16:45.971Z,27.63
2018-05-31T07:18:46.935Z,33.30
2018-05-31T07:20:47.919Z,28.93
2018-05-31T07:22:48.901Z,28.43
2018-05-31T07:24:50.598Z,24.40
2018-05-31T07:26:51.588Z,27.10
2018-05-31T07:28:53.275Z,29.37
2018-05-31T07:30:54.222Z,30.00
2018-05-31T07:32:55.182Z,26.10
2018-05-31T07:34:56.883Z,26.57
2018-05-31T07:36:57.882Z,37.03
2018-05-31T07:38:58.837Z,31.53
2018-05-31T07:40:59.791Z,23.67
2018-05-31T07:43:00.739Z,31.97
2018-05-31T07:45:01.731Z,28.27
2018-05-31T07:47:03.424Z,27.27
2018-05-31T07:49:04.417Z,31.67
2018-05-31T07:51:05.358Z,22.00
2018-05-31T07:53:06.343Z,27.10
2018-05-31T07:55:08.041Z,33.03
2018-05-31T07:57:09.745Z,25.47
2018-05-31T07:59:10.781Z,25.27
2018-05-31T08:01:11.743Z,29.30
2018-05-31T08:03:12.886Z,21.77
2018-05-31T08:05:13.831Z,26.73
2018-05-31T08:07:14.768Z,24.23
2018-05-31T08:09:15.793Z,23.87
2018-05-31T08:11:16.773Z,30.60
2018-05-31T08:13:17.759Z,22.60
2018-05-31T08:15:18.734Z,25.40
2018-05-31T08:17:19.717Z,31.23
2018-05-31T08:19:20.693Z,19.33
2018-05-31T08:21:21.635Z,21.10
2018-05-31T08:23:23.325Z,20.57
2018-05-31T08:25:24.279Z,22.20
2018-05-31T08:27:25.265Z,17.87
2018-05-31T08:29:26.209Z,25.47
2018-05-31T08:31:27.558Z,21.03
2018-05-31T08:33:28.599Z,24.53
2018-05-31T08:35:29.537Z,19.53
2018-05-31T08:37:30.513Z,18.97
2018-05-31T08:39:31.470Z,22.73
2018-05-31T08:41:33.218Z,15.07
2018-05-31T08:43:34.648Z,16.53
2018-05-31T08:45:36.405Z,16.17
2018-05-31T08:47:37.444Z,22.40
2018-05-31T08:49:38.393Z,15.40
2018-05-31T08:51:39.378Z,16.50
2018-05-31T08:53:41.219Z,18.30
2018-05-31T08:55:42.178Z,15.03
2018-05-31T08:57:43.136Z,22.57
2018-05-31T08:59:44.971Z,17.77
2018-05-31T09:01:45.970Z,15.27
2018-05-31T09:03:46.950Z,15.43
2018-05-31T09:05:47.933Z,15.90
2018-05-31T09:07:48.929Z,14.60
2018-05-31T09:09:49.893Z,13.50
2018-05-31T09:11:50.853Z,17.03
2018-05-31T09:13:51.838Z,14.60
2018-05-31T09:15:52.828Z,14.90
2018-05-31T09:17:53.991Z,14.00
2018-05-31T09:19:55.017Z,16.50
2018-05-31T09:21:55.982Z,15.13
2018-05-31T09:23:57.002Z,14.90
2018-05-31T09:25:57.989Z,10.90
2018-05-31T09:27:58.997Z,11.05
2018-05-31T09:30:00.107Z,11.40
2018-05-31T09:32:01.136Z,14.73
2018-05-31T09:34:02.117Z,10.60
2018-05-31T09:36:03.895Z,14.07
2018-05-31T09:38:05.689Z,10.73
2018-05-31T09:40:06.660Z,15.77
2018-05-31T09:42:07.606Z,12.50
2018-05-31T09:44:08.549Z,16.87
2018-05-31T09:46:09.549Z,14.33
2018-05-31T09:48:10.550Z,14.73
2018-05-31T09:50:11.514Z,13.63
2018-05-31T09:52:12.478Z,15.47
2018-05-31T09:54:13.446Z,19.83
2018-05-31T09:56:14.464Z,11.07
2018-05-31T09:58:16.197Z,15.27
2018-05-31T10:00:17.196Z,12.00
2018-05-31T10:02:18.161Z,12.37
2018-05-31T10:04:19.182Z,15.80
2018-05-31T10:06:20.158Z,17.70
2018-05-31T10:08:21.129Z,15.50
2018-05-31T10:10:22.106Z,10.70
2018-05-31T10:12:23.098Z,20.10
2018-05-31T10:14:24.067Z,22.67
2018-05-31T10:16:25.059Z,15.97
2018-05-31T10:18:26.798Z,16.40
2018-05-31T10:20:27.778Z,20.63
2018-05-31T10:22:28.720Z,14.27
2018-05-31T10:24:29.734Z,13.23
2018-05-31T10:26:30.702Z,17.90
2018-05-31T10:28:31.666Z,13.00
2018-05-31T10:30:39.158Z,16.67
2018-05-31T10:32:40.190Z,21.50
2018-05-31T10:34:41.173Z,12.40
2018-05-31T10:36:42.166Z,17.00
2018-05-31T10:41:11.802Z,14.13
2018-05-31T10:45:35.845Z,18.93
2018-05-31T10:47:36.839Z,14.53
2018-05-31T10:49:37.817Z,18.67
2018-05-31T10:51:38.774Z,12.17
2018-05-31T10:53:39.744Z,14.00
2018-05-31T10:55:40.790Z,17.30
2018-05-31T10:57:41.760Z,14.23
2018-05-31T10:59:43.462Z,16.50
2018-05-31T11:01:44.455Z,11.57
2018-05-31T11:03:45.514Z,13.07
2018-05-31T11:05:47.237Z,17.77
2018-05-31T11:07:48.213Z,16.90
2018-05-31T11:09:49.234Z,15.63
2018-05-31T11:11:50.268Z,13.20
2018-05-31T11:13:51.230Z,22.63
2018-05-31T11:15:52.945Z,10.90
2018-05-31T11:17:53.902Z,12.40
2018-05-31T11:19:54.946Z,18.80
2018-05-31T11:21:55.932Z,12.37
2018-05-31T11:23:56.939Z,11.40
2018-05-31T11:25:57.945Z,17.37
2018-05-31T11:27:58.921Z,14.60
2018-05-31T11:29:59.885Z,14.50
2018-05-31T11:32:00.943Z,22.37
2018-05-31T11:34:01.897Z,14.10
2018-05-31T11:36:02.885Z,16.83
2018-05-31T11:38:03.883Z,15.53
2018-05-31T11:40:04.840Z,23.43
2018-05-31T11:42:05.794Z,9.77
2018-05-31T11:44:07.702Z,10.80
2018-05-31T11:46:08.682Z,16.23
2018-05-31T11:48:09.941Z,15.20
2018-05-31T11:50:11.755Z,17.57
2018-05-31T11:52:12.741Z,12.17
2018-05-31T11:54:13.853Z,13.23
2018-05-31T11:56:14.970Z,14.47
2018-05-31T11:58:16.726Z,12.07
2018-05-31T12:00:17.705Z,13.87
2018-05-31T12:02:18.757Z,9.93
2018-05-31T12:04:19.792Z,19.40
2018-05-31T12:06:20.763Z,12.43
2018-05-31T12:08:21.755Z,10.90
2018-05-31T12:10:22.721Z,11.73
2018-05-31T12:12:23.799Z,14.00
2018-05-31T12:14:25.217Z,13.23
2018-05-31T12:16:26.198Z,14.87
2018-05-31T12:18:28.443Z,17.83
2018-05-31T12:20:29.446Z,25.87
2018-05-31T12:22:30.441Z,15.20
2018-05-31T12:24:32.932Z,10.52
2018-05-31T12:26:34.014Z,11.40
2018-05-31T12:28:34.988Z,12.70
2018-05-31T12:30:35.987Z,10.20
2018-05-31T12:32:36.971Z,10.57
2018-05-31T12:34:37.934Z,14.00
2018-05-31T12:36:39.034Z,13.30
2018-05-31T12:38:40.045Z,14.57
2018-05-31T12:40:41.013Z,25.07
2018-05-31T12:42:41.998Z,17.93
2018-05-31T12:44:42.966Z,14.10
2018-05-31T12:46:44.054Z,12.40
2018-05-31T12:48:45.792Z,12.37
2018-05-31T12:50:46.777Z,11.87
2018-05-31T12:52:47.772Z,16.10
2018-05-31T12:54:48.717Z,12.97
2018-05-31T12:56:49.736Z,10.03
2018-05-31T12:58:50.725Z,14.07
2018-05-31T13:00:51.665Z,10.60
2018-05-31T13:02:52.642Z,11.93
2018-05-31T13:04:54.427Z,18.10
2018-05-31T13:06:55.387Z,14.70
2018-05-31T13:08:56.497Z,16.33
2018-05-31T13:10:58.304Z,11.03
2018-05-31T13:13:00.009Z,10.17
2018-05-31T13:15:01.036Z,12.17
2018-05-31T13:17:02.990Z,16.57
2018-05-31T13:19:03.986Z,14.37
2018-05-31T13:21:05.714Z,13.50
2018-05-31T13:23:06.652Z,13.27
2018-05-31T13:25:07.622Z,13.97
2018-05-31T13:27:08.632Z,13.80
2018-05-31T13:29:09.582Z,15.57
2018-05-31T13:31:10.650Z,15.60
2018-05-31T13:33:11.622Z,15.60
2018-05-31T13:35:12.602Z,21.77
2018-05-31T13:37:13.722Z,17.50
2018-05-31T13:39:15.433Z,10.63
2018-05-31T13:41:16.556Z,10.60
2018-05-31T13:43:17.609Z,12.47
2018-05-31T13:45:18.618Z,16.90
2018-05-31T13:47:19.642Z,11.50
2018-05-31T13:49:20.785Z,15.07
2018-05-31T13:51:21.802Z,19.50
2018-05-31T13:53:22.918Z,21.43
2018-05-31T13:55:23.889Z,17.17
2018-05-31T13:57:24.841Z,15.03
2018-05-31T13:59:25.798Z,18.90
2018-05-31T14:01:26.745Z,18.03
2018-05-31T14:03:27.760Z,21.00
2018-05-31T14:05:28.702Z,14.47
2018-05-31T14:07:30.402Z,18.73
2018-05-31T14:09:31.403Z,16.97
2018-05-31T14:11:32.349Z,16.77
2018-05-31T14:13:33.351Z,16.20
2018-05-31T14:15:34.380Z,17.73
2018-05-31T14:17:36.109Z,19.90
2018-05-31T14:19:37.852Z,21.43
2018-05-31T14:21:40.121Z,14.87
2018-05-31T14:23:41.116Z,21.23
2018-05-31T14:25:42.126Z,19.83
2018-05-31T14:27:43.129Z,12.77
2018-05-31T14:29:44.181Z,14.33
2018-05-31T14:31:45.173Z,17.57
2018-05-31T14:33:46.236Z,14.40
2018-05-31T14:35:47.247Z,14.83
2018-05-31T14:37:48.317Z,18.87
2018-05-31T14:39:49.338Z,22.13
2018-05-31T14:41:50.357Z,17.37
2018-05-31T14:44:06.772Z,15.63
2018-05-31T14:46:07.801Z,17.73
2018-05-31T14:48:09.578Z,23.40
2018-05-31T14:50:10.546Z,24.00
2018-05-31T14:52:12.302Z,20.73
2018-05-31T14:54:13.298Z,17.50
2018-05-31T14:56:14.246Z,26.50
2018-05-31T14:58:15.269Z,20.07
2018-05-31T15:00:16.223Z,26.43
2018-05-31T15:02:17.193Z,22.53
2018-05-31T15:04:18.237Z,20.03
2018-05-31T15:06:19.279Z,18.70
2018-05-31T15:08:20.270Z,20.17
2018-05-31T15:10:21.252Z,23.73
2018-05-31T15:12:22.209Z,30.13
2018-05-31T15:14:23.153Z,23.30
2018-05-31T15:16:24.108Z,20.50
2018-05-31T15:18:25.148Z,22.27
2018-05-31T15:20:26.158Z,23.17
2018-05-31T15:22:27.122Z,20.73
2018-05-31T15:24:28.076Z,21.53
2018-05-31T15:26:29.051Z,22.70
2018-05-31T15:28:29.998Z,22.20
2018-05-31T15:30:30.940Z,30.40
2018-05-31T15:32:31.942Z,21.77
2018-05-31T15:34:32.921Z,21.63
2018-05-31T15:36:34.387Z,24.83
2018-05-31T15:38:35.406Z,26.17
2018-05-31T15:40:36.377Z,36.33
2018-05-31T15:42:37.557Z,26.17
2018-05-31T15:44:39.373Z,25.33
2018-05-31T15:46:40.339Z,19.20
2018-05-31T15:48:41.346Z,24.10
2018-05-31T15:50:43.038Z,22.30
2018-05-31T15:52:44.005Z,24.10
2018-05-31T15:54:44.964Z,23.00
2018-05-31T15:56:46.656Z,23.87
2018-05-31T15:58:47.600Z,21.13
2018-05-31T16:00:48.549Z,20.83
2018-05-31T16:02:49.517Z,19.40
2018-05-31T16:04:50.469Z,23.33
2018-05-31T16:06:51.403Z,18.73
2018-05-31T16:08:52.359Z,22.87
2018-05-31T16:10:53.312Z,20.73
2018-05-31T16:12:54.247Z,23.27
2018-05-31T16:14:55.160Z,21.30
2018-05-31T16:16:56.126Z,16.77
2018-05-31T16:18:57.063Z,19.70
2018-05-31T16:20:58.081Z,19.73
2018-05-31T16:22:59.777Z,21.27
2018-05-31T16:25:00.714Z,25.93
2018-05-31T16:27:01.686Z,19.97
2018-05-31T16:29:02.630Z,17.17
2018-05-31T16:31:03.613Z,26.17
2018-05-31T16:33:04.536Z,23.00
2018-05-31T16:35:05.524Z,17.90
2018-05-31T16:37:07.207Z,25.30
2018-05-31T16:39:08.135Z,19.80
2018-05-31T16:41:09.101Z,15.53
2018-05-31T16:43:10.040Z,20.00
2018-05-31T16:45:11.014Z,15.37
2018-05-31T16:47:11.964Z,21.70
2018-05-31T16:49:12.905Z,25.47
2018-05-31T16:51:13.829Z,19.47
2018-05-31T16:53:14.764Z,20.93
2018-05-31T16:55:15.694Z,16.27
2018-05-31T16:57:17.382Z,21.50
2018-05-31T16:59:18.344Z,18.73
2018-05-31T17:01:19.252Z,18.83
2018-05-31T17:03:20.990Z,17.50
2018-05-31T17:05:21.953Z,17.43
2018-05-31T17:07:23.645Z,13.37
2018-05-31T17:09:24.589Z,48.37
2018-05-31T17:11:25.569Z,28.87
2018-05-31T17:13:26.488Z,19.70
2018-05-31T17:15:27.428Z,15.33
2018-05-31T17:17:28.369Z,16.90
2018-05-31T17:19:29.304Z,16.93
2018-05-31T17:21:30.249Z,21.40
2018-05-31T17:23:31.192Z,17.50
2018-05-31T17:25:32.872Z,27.50
2018-05-31T17:27:35.793Z,28.53
2018-05-31T17:29:36.724Z,20.60
2018-05-31T17:31:37.653Z,16.50
2018-05-31T17:33:38.589Z,17.33
2018-05-31T17:35:40.284Z,19.77
2018-05-31T17:37:41.213Z,18.37
2018-05-31T17:39:42.153Z,18.70
2018-05-31T17:41:43.133Z,19.73
2018-05-31T17:43:44.369Z,24.07
2018-05-31T17:45:45.377Z,19.50
2018-05-31T17:47:47.085Z,20.50
2018-05-31T17:49:48.025Z,22.20
2018-05-31T17:51:49.028Z,21.80
2018-05-31T17:53:50.704Z,23.73
2018-05-31T17:55:52.387Z,30.90
2018-05-31T17:57:53.372Z,23.83
2018-05-31T17:59:54.300Z,21.43
2018-05-31T18:01:55.225Z,18.30
2018-05-31T18:03:56.176Z,26.63
2018-05-31T18:05:57.147Z,33.70
2018-05-31T18:07:58.099Z,30.00
2018-05-31T18:09:59.040Z,26.53
2018-05-31T18:11:59.988Z,28.40
2018-05-31T18:14:00.946Z,21.20
2018-05-31T18:16:01.857Z,21.50
2018-05-31T18:18:02.805Z,24.00
2018-05-31T18:20:03.753Z,25.30
2018-05-31T18:22:04.707Z,28.43
2018-05-31T18:24:05.654Z,28.93
2018-05-31T18:26:06.629Z,21.67
2018-05-31T18:28:07.556Z,23.40
2018-05-31T18:30:08.529Z,23.60
2018-05-31T18:32:09.549Z,23.57
2018-05-31T18:34:10.541Z,23.60
2018-05-31T18:36:11.492Z,27.40
2018-05-31T18:38:12.474Z,18.20
2018-05-31T18:40:13.431Z,23.77
2018-05-31T18:42:14.431Z,29.87
2018-05-31T18:44:15.611Z,25.13
2018-05-31T18:46:16.593Z,22.77
2018-05-31T18:48:20.862Z,20.17
2018-05-31T18:50:21.820Z,20.43
2018-05-31T18:52:22.752Z,22.43
2018-05-31T18:54:23.710Z,22.20
2018-05-31T18:56:24.721Z,20.70
2018-05-31T18:58:26.421Z,29.90
2018-05-31T19:00:27.550Z,23.60
2018-05-31T19:02:28.557Z,28.47
2018-05-31T19:04:29.538Z,29.77
2018-05-31T19:06:31.262Z,22.23
2018-05-31T19:08:32.443Z,29.80
2018-05-31T19:10:34.377Z,24.43
2018-05-31T19:12:41.347Z,23.00
2018-05-31T19:14:42.342Z,23.17
2018-05-31T19:16:44.012Z,26.90
2018-05-31T19:18:52.065Z,26.63
2018-05-31T19:20:53.614Z,25.77
2018-05-31T19:22:54.572Z,26.93
2018-05-31T19:25:01.667Z,21.83
2018-05-31T19:27:03.021Z,26.93
2018-05-31T19:29:04.075Z,24.80
2018-05-31T19:31:09.871Z,29.13
2018-05-31T19:33:10.825Z,27.40
2018-05-31T19:35:17.962Z,34.50
2018-05-31T19:37:19.032Z,28.47
2018-05-31T19:39:19.979Z,28.90
2018-05-31T19:41:20.969Z,27.73
2018-05-31T19:43:28.977Z,30.70
2018-05-31T19:45:30.666Z,26.90
2018-05-31T19:47:31.855Z,28.90
2018-05-31T19:49:32.850Z,25.27
2018-05-31T19:51:39.988Z,30.07
2018-05-31T19:53:42.951Z,39.17
2018-05-31T19:55:44.018Z,26.80
2018-05-31T19:57:51.009Z,36.90
2018-05-31T19:59:57.988Z,30.70
2018-05-31T20:02:06.135Z,30.93
2018-05-31T20:04:08.363Z,24.70
2018-05-31T20:06:09.343Z,36.43
2018-05-31T20:08:10.499Z,30.17
2018-05-31T20:10:12.618Z,27.90
2018-05-31T20:12:21.256Z,28.13
2018-05-31T20:14:19.170Z,29.43
2018-05-31T20:16:20.155Z,28.03
2018-05-31T20:18:21.918Z,27.23
2018-05-31T20:20:22.936Z,32.70
2018-05-31T20:22:23.921Z,33.67
2018-05-31T20:24:25.007Z,33.80
2018-05-31T20:26:25.961Z,35.07
2018-05-31T20:28:26.872Z,27.07
2018-05-31T20:30:27.919Z,27.23
2018-05-31T20:32:28.932Z,32.70
2018-05-31T20:34:29.837Z,38.43
2018-05-31T20:36:30.813Z,27.57
2018-05-31T20:38:31.761Z,27.90
2018-05-31T20:40:32.809Z,32.60
2018-05-31T20:42:33.769Z,33.70
2018-05-31T20:44:34.756Z,28.63
2018-05-31T20:46:35.717Z,35.83
2018-05-31T20:48:36.673Z,28.90
2018-05-31T20:50:37.722Z,35.57
2018-05-31T20:52:38.819Z,27.90
2018-05-31T20:54:39.874Z,26.03
2018-05-31T20:56:40.814Z,32.03
2018-05-31T20:58:41.780Z,30.07
2018-05-31T21:00:42.721Z,35.90
2018-05-31T21:02:43.757Z,31.67
2018-05-31T21:04:44.784Z,30.73
2018-05-31T21:06:45.987Z,33.77
2018-05-31T21:08:46.943Z,33.20
2018-05-31T21:10:47.958Z,28.57
2018-05-31T21:12:48.965Z,33.50
2018-05-31T21:14:49.938Z,35.10
2018-05-31T21:16:50.891Z,27.87
2018-05-31T21:18:52.919Z,33.63
2018-05-31T21:20:53.915Z,28.77
2018-05-31T21:22:54.920Z,30.73
2018-05-31T21:24:55.824Z,29.53
2018-05-31T21:26:56.839Z,30.53
2018-05-31T21:28:58.565Z,28.53
2018-05-31T21:30:59.550Z,34.07
2018-05-31T21:33:00.670Z,34.53
2018-05-31T21:35:02.469Z,31.20
2018-05-31T21:37:03.421Z,28.73
2018-05-31T21:39:04.420Z,31.80
2018-05-31T21:41:06.178Z,35.80
2018-05-31T21:43:07.114Z,35.73
2018-05-31T21:45:08.062Z,34.83
2018-05-31T21:47:09.168Z,35.80
2018-05-31T21:49:10.116Z,39.67
2018-05-31T21:51:11.783Z,33.87
2018-05-31T21:53:12.844Z,34.27
2018-05-31T21:55:13.761Z,49.63
2018-05-31T21:57:15.427Z,34.30
2018-05-31T21:59:17.114Z,37.57
2018-05-31T22:01:18.088Z,46.60
2018-05-31T22:03:19.033Z,36.17
2018-05-31T22:05:19.968Z,35.23
2018-05-31T22:07:20.953Z,39.33
2018-05-31T22:09:21.911Z,37.73
2018-05-31T22:11:23.592Z,37.60
2018-05-31T22:13:24.536Z,43.10
2018-05-31T22:15:25.480Z,38.87
2018-05-31T22:17:26.421Z,39.53
2018-05-31T22:19:28.130Z,37.30
2018-05-31T22:21:29.061Z,36.23
2018-05-31T22:23:30.000Z,43.03
2018-05-31T22:25:30.940Z,46.07
2018-05-31T22:27:31.869Z,40.47
2018-05-31T22:29:32.816Z,39.00
2018-05-31T22:31:33.862Z,45.17
2018-05-31T22:33:35.619Z,41.93
2018-05-31T22:35:37.292Z,52.47
2018-05-31T22:37:38.234Z,38.80
2018-05-31T22:39:39.922Z,36.97
2018-05-31T22:41:41.612Z,31.70
2018-05-31T22:43:42.557Z,34.73
2018-05-31T22:45:44.960Z,40.03
2018-05-31T22:47:45.930Z,46.17
2018-05-31T22:49:47.633Z,42.17
2018-05-31T22:51:48.604Z,40.87
2018-05-31T22:53:49.593Z,40.73
2018-05-31T22:55:50.534Z,41.70
2018-05-31T22:57:51.489Z,35.50
2018-05-31T22:59:52.445Z,42.63
2018-05-31T23:01:53.422Z,41.37
2018-05-31T23:03:54.401Z,37.30
2018-05-31T23:05:55.338Z,42.73
2018-05-31T23:07:56.289Z,47.17
2018-05-31T23:09:57.269Z,43.20
2018-05-31T23:11:58.216Z,53.07
2018-05-31T23:13:59.162Z,43.70
2018-05-31T23:16:00.105Z,40.90
2018-05-31T23:18:01.069Z,42.93
2018-05-31T23:20:02.033Z,36.10
2018-05-31T23:22:03.000Z,45.03
2018-05-31T23:24:03.949Z,43.00
2018-05-31T23:26:04.929Z,40.03
2018-05-31T23:28:05.864Z,38.20
2018-05-31T23:30:07.573Z,44.93
2018-05-31T23:32:08.507Z,40.27
2018-05-31T23:34:09.435Z,36.43
2018-05-31T23:36:10.382Z,39.87
2018-05-31T23:38:11.357Z,44.67
2018-05-31T23:40:12.281Z,36.37
2018-05-31T23:42:13.253Z,42.20
2018-05-31T23:44:14.211Z,36.40
2018-05-31T23:46:15.151Z,37.27
2018-05-31T23:48:16.110Z,35.30
2018-05-31T23:50:17.094Z,35.97
2018-05-31T23:52:18.061Z,41.50
2018-05-31T23:54:19.018Z,39.50
2018-05-31T23:56:19.988Z,38.90
2018-05-31T23:58:20.945Z,38.13
